createdAt,value
2017-11-10T00:00:12.571Z,61.40
2017-11-10T00:01:12.547Z,82.60
2017-11-10T00:02:12.773Z,97.60
2017-11-10T00:03:12.484Z,109.30
2017-11-10T00:04:12.464Z,109.20
2017-11-10T00:05:12.432Z,101.70
2017-11-10T00:06:12.407Z,134.90
2017-11-10T00:07:12.381Z,133.50
2017-11-10T00:08:12.357Z,123.40
2017-11-10T00:09:12.322Z,141.20
2017-11-10T00:10:12.302Z,147.90
2017-11-10T00:11:12.270Z,139.00
2017-11-10T00:12:12.242Z,76.60
2017-11-10T00:13:12.210Z,138.20
2017-11-10T00:14:12.185Z,137.40
2017-11-10T00:15:12.155Z,142.00
2017-11-10T00:16:12.132Z,126.40
2017-11-10T00:17:12.108Z,137.60
2017-11-10T00:18:12.074Z,124.90
2017-11-10T00:19:12.051Z,125.50
2017-11-10T00:20:12.018Z,124.10
2017-11-10T00:21:11.989Z,119.50
2017-11-10T00:22:11.963Z,117.30
2017-11-10T00:23:11.944Z,115.40
2017-11-10T00:24:11.920Z,121.20
2017-11-10T00:25:11.885Z,109.20
2017-11-10T00:26:12.108Z,95.30
2017-11-10T00:27:11.830Z,105.60
2017-11-10T00:28:11.809Z,87.90
2017-11-10T00:29:11.777Z,93.80
2017-11-10T00:30:11.748Z,91.50
2017-11-10T00:31:11.730Z,84.40
2017-11-10T00:32:11.994Z,90.50
2017-11-10T00:33:11.664Z,98.40
2017-11-10T00:34:11.640Z,88.90
2017-11-10T00:35:11.607Z,77.90
2017-11-10T00:36:11.580Z,88.60
2017-11-10T00:37:11.552Z,80.40
2017-11-10T00:38:11.532Z,91.60
2017-11-10T00:39:11.511Z,74.40
2017-11-10T00:40:11.469Z,91.70
2017-11-10T00:41:11.444Z,85.20
2017-11-10T00:42:11.417Z,83.00
2017-11-10T00:43:11.391Z,83.70
2017-11-10T00:44:11.366Z,83.60
2017-11-10T00:45:11.338Z,82.50
2017-11-10T00:46:11.311Z,92.50
2017-11-10T00:47:11.286Z,54.30
2017-11-10T00:48:11.255Z,95.40
2017-11-10T00:49:11.531Z,94.80
2017-11-10T00:50:11.202Z,88.50
2017-11-10T00:51:11.175Z,100.50
2017-11-10T00:52:11.144Z,99.30
2017-11-10T00:53:11.122Z,93.10
2017-11-10T00:54:11.108Z,101.50
2017-11-10T00:55:11.312Z,110.90
2017-11-10T00:56:11.038Z,108.80
2017-11-10T00:57:11.005Z,105.20
2017-11-10T00:58:10.989Z,80.30
2017-11-10T00:59:10.954Z,107.60
2017-11-10T01:00:10.933Z,94.20
2017-11-10T01:01:11.202Z,96.80
2017-11-10T01:02:10.877Z,92.30
2017-11-10T01:03:10.848Z,108.10
2017-11-10T01:04:10.819Z,98.00
2017-11-10T01:05:10.790Z,108.30
2017-11-10T01:06:10.761Z,107.30
2017-11-10T01:07:10.744Z,103.70
2017-11-10T01:08:10.709Z,111.20
2017-11-10T01:09:10.685Z,116.00
2017-11-10T01:10:10.657Z,128.10
2017-11-10T01:11:10.630Z,115.00
2017-11-10T01:12:10.600Z,106.50
2017-11-10T01:13:10.826Z,117.80
2017-11-10T01:14:10.551Z,118.30
2017-11-10T01:15:10.519Z,115.50
2017-11-10T01:16:10.497Z,110.00
2017-11-10T01:17:10.462Z,110.90
2017-11-10T01:18:10.739Z,106.90
2017-11-10T01:19:10.407Z,118.20
2017-11-10T01:20:10.386Z,111.40
2017-11-10T01:21:10.368Z,116.40
2017-11-10T01:22:10.328Z,111.70
2017-11-10T01:23:10.308Z,107.60
2017-11-10T01:24:10.523Z,106.20
2017-11-10T01:25:10.254Z,114.20
2017-11-10T01:26:10.220Z,121.20
2017-11-10T01:27:10.197Z,116.80
2017-11-10T01:28:10.164Z,106.80
2017-11-10T01:29:10.136Z,115.70
2017-11-10T01:30:10.110Z,102.70
2017-11-10T01:31:10.089Z,83.30
2017-11-10T01:32:10.053Z,90.20
2017-11-10T01:33:10.026Z,93.80
2017-11-10T01:34:10.005Z,87.60
2017-11-10T01:35:09.984Z,99.30
2017-11-10T01:36:10.199Z,76.50
2017-11-10T01:37:09.918Z,96.90
2017-11-10T01:38:09.890Z,83.00
2017-11-10T01:39:09.866Z,64.90
2017-11-10T01:40:09.840Z,88.90
2017-11-10T01:41:09.811Z,47.90
2017-11-10T01:42:10.139Z,55.30
2017-11-10T01:43:09.757Z,78.10
2017-11-10T01:44:09.729Z,79.00
2017-11-10T01:45:09.706Z,52.90
2017-11-10T01:46:09.675Z,45.10
2017-11-10T01:47:09.649Z,77.50
2017-11-10T01:48:09.622Z,87.20
2017-11-10T01:49:09.591Z,66.20
2017-11-10T01:50:09.567Z,87.20
2017-11-10T01:51:09.545Z,70.90
2017-11-10T01:52:09.513Z,55.20
2017-11-10T01:53:09.490Z,80.00
2017-11-10T01:54:09.463Z,79.60
2017-11-10T01:55:09.431Z,72.00
2017-11-10T01:56:09.408Z,82.20
2017-11-10T01:57:09.379Z,89.80
2017-11-10T01:58:09.352Z,81.60
2017-11-10T01:59:09.322Z,87.90
2017-11-10T02:00:09.291Z,68.10
2017-11-10T02:01:09.268Z,50.20
2017-11-10T02:02:09.244Z,48.40
2017-11-10T02:03:09.220Z,48.10
2017-11-10T02:04:09.182Z,47.30
2017-11-10T02:05:09.157Z,62.60
2017-11-10T02:06:09.129Z,73.30
2017-11-10T02:07:09.099Z,68.10
2017-11-10T02:08:09.084Z,57.30
2017-11-10T02:09:09.062Z,69.00
2017-11-10T02:10:09.017Z,70.40
2017-11-10T02:11:08.994Z,69.00
2017-11-10T02:12:09.215Z,57.40
2017-11-10T02:13:08.941Z,58.00
2017-11-10T02:14:08.909Z,66.30
2017-11-10T02:15:08.891Z,61.70
2017-11-10T02:16:08.863Z,48.60
2017-11-10T02:17:08.837Z,63.10
2017-11-10T02:18:09.052Z,57.80
2017-11-10T02:19:08.786Z,63.50
2017-11-10T02:20:08.751Z,54.10
2017-11-10T02:21:08.720Z,59.90
2017-11-10T02:22:08.702Z,58.70
2017-11-10T02:23:08.673Z,46.50
2017-11-10T02:24:08.638Z,67.90
2017-11-10T02:25:08.614Z,57.30
2017-11-10T02:26:08.585Z,49.00
2017-11-10T02:27:08.557Z,48.40
2017-11-10T02:28:08.533Z,62.10
2017-11-10T02:29:08.755Z,61.50
2017-11-10T02:30:08.478Z,65.90
2017-11-10T02:31:08.451Z,55.60
2017-11-10T02:32:08.422Z,58.70
2017-11-10T02:33:08.399Z,68.70
2017-11-10T02:34:08.375Z,71.10
2017-11-10T02:35:08.596Z,65.30
2017-11-10T02:36:08.321Z,65.80
2017-11-10T02:37:08.296Z,55.20
2017-11-10T02:38:08.271Z,46.20
2017-11-10T02:39:08.246Z,35.60
2017-11-10T02:40:08.207Z,36.00
2017-11-10T02:41:08.480Z,50.50
2017-11-10T02:42:08.150Z,69.70
2017-11-10T02:43:08.129Z,77.50
2017-11-10T02:44:08.096Z,54.70
2017-11-10T02:45:08.069Z,67.40
2017-11-10T02:46:08.044Z,60.40
2017-11-10T02:47:08.019Z,66.90
2017-11-10T02:48:07.991Z,82.20
2017-11-10T02:49:07.966Z,54.30
2017-11-10T02:50:07.945Z,47.40
2017-11-10T02:51:07.904Z,52.40
2017-11-10T02:52:07.881Z,34.80
2017-11-10T02:53:07.853Z,56.00
2017-11-10T02:54:07.832Z,60.60
2017-11-10T02:55:07.798Z,61.50
2017-11-10T02:56:07.769Z,53.60
2017-11-10T02:57:07.748Z,61.70
2017-11-10T02:58:07.712Z,69.70
2017-11-10T02:59:07.987Z,74.50
2017-11-10T03:00:07.670Z,77.20
2017-11-10T03:01:07.634Z,71.50
2017-11-10T03:02:07.616Z,51.70
2017-11-10T03:03:07.581Z,71.60
2017-11-10T03:04:07.554Z,42.00
2017-11-10T03:05:07.781Z,47.30
2017-11-10T03:06:07.502Z,38.50
2017-11-10T03:07:07.472Z,51.50
2017-11-10T03:08:07.458Z,73.00
2017-11-10T03:09:07.413Z,62.50
2017-11-10T03:10:07.395Z,74.50
2017-11-10T03:11:07.711Z,54.70
2017-11-10T03:12:07.337Z,72.30
2017-11-10T03:13:07.303Z,69.10
2017-11-10T03:14:07.282Z,42.10
2017-11-10T03:15:07.267Z,53.90
2017-11-10T03:16:07.265Z,46.30
2017-11-10T03:17:07.448Z,60.00
2017-11-10T03:18:07.175Z,79.50
2017-11-10T03:19:07.170Z,60.90
2017-11-10T03:20:07.114Z,69.30
2017-11-10T03:21:07.091Z,73.70
2017-11-10T03:22:07.069Z,73.30
2017-11-10T03:23:07.036Z,72.10
2017-11-10T03:24:07.012Z,64.10
2017-11-10T03:25:06.983Z,56.50
2017-11-10T03:26:06.951Z,55.30
2017-11-10T03:27:06.923Z,41.90
2017-11-10T03:28:06.901Z,52.10
2017-11-10T03:29:06.870Z,45.90
2017-11-10T03:30:06.848Z,65.90
2017-11-10T03:31:06.823Z,67.90
2017-11-10T03:32:06.789Z,63.20
2017-11-10T03:33:06.761Z,61.40
2017-11-10T03:34:06.730Z,37.70
2017-11-10T03:35:06.704Z,45.60
2017-11-10T03:36:06.682Z,66.30
2017-11-10T03:37:06.648Z,48.60
2017-11-10T03:38:06.620Z,42.60
2017-11-10T03:39:06.597Z,45.60
2017-11-10T03:40:06.570Z,60.10
2017-11-10T03:41:06.797Z,59.50
2017-11-10T03:42:06.516Z,59.60
2017-11-10T03:43:06.488Z,52.80
2017-11-10T03:44:06.465Z,69.10
2017-11-10T03:45:06.437Z,66.90
2017-11-10T03:46:06.404Z,65.00
2017-11-10T03:47:06.682Z,64.40
2017-11-10T03:48:06.350Z,64.40
2017-11-10T03:49:06.320Z,64.80
2017-11-10T03:50:06.296Z,53.50
2017-11-10T03:51:06.269Z,51.00
2017-11-10T03:52:06.242Z,58.70
2017-11-10T03:53:06.216Z,58.20
2017-11-10T03:54:06.186Z,54.50
2017-11-10T03:55:06.156Z,56.40
2017-11-10T03:56:06.134Z,60.20
2017-11-10T03:57:06.105Z,57.20
2017-11-10T03:58:06.079Z,64.20
2017-11-10T03:59:06.053Z,81.30
2017-11-10T04:00:06.022Z,65.80
2017-11-10T04:01:05.999Z,69.90
2017-11-10T04:02:05.965Z,66.50
2017-11-10T04:03:05.937Z,68.70
2017-11-10T04:04:05.912Z,69.80
2017-11-10T04:05:05.884Z,69.50
2017-11-10T04:06:05.854Z,57.70
2017-11-10T04:07:05.832Z,50.30
2017-11-10T04:08:05.809Z,45.30
2017-11-10T04:09:05.782Z,66.20
2017-11-10T04:10:06.556Z,59.80
2017-11-10T04:11:05.726Z,60.40
2017-11-10T04:12:05.697Z,64.10
2017-11-10T04:13:05.667Z,58.00
2017-11-10T04:14:05.660Z,60.30
2017-11-10T04:15:05.611Z,42.10
2017-11-10T04:16:05.835Z,54.10
2017-11-10T04:17:05.557Z,59.90
2017-11-10T04:18:05.529Z,52.00
2017-11-10T04:19:05.513Z,55.70
2017-11-10T04:20:05.477Z,72.80
2017-11-10T04:21:05.447Z,69.00
2017-11-10T04:22:05.422Z,62.80
2017-11-10T04:23:05.398Z,74.60
2017-11-10T04:24:05.369Z,59.80
2017-11-10T04:25:05.342Z,67.90
2017-11-10T04:26:05.316Z,57.40
2017-11-10T04:27:05.286Z,43.40
2017-11-10T04:28:05.561Z,47.80
2017-11-10T04:29:05.228Z,47.80
2017-11-10T04:30:05.201Z,45.10
2017-11-10T04:31:05.180Z,65.30
2017-11-10T04:32:05.160Z,56.90
2017-11-10T04:33:05.115Z,49.60
2017-11-10T04:34:05.391Z,45.70
2017-11-10T04:35:05.060Z,55.50
2017-11-10T04:36:05.039Z,54.40
2017-11-10T04:37:05.007Z,45.10
2017-11-10T04:38:04.983Z,41.10
2017-11-10T04:39:04.952Z,43.60
2017-11-10T04:40:05.326Z,58.50
2017-11-10T04:41:04.903Z,58.20
2017-11-10T04:42:04.870Z,47.90
2017-11-10T04:43:04.844Z,44.30
2017-11-10T04:44:04.816Z,45.70
2017-11-10T04:45:04.796Z,38.30
2017-11-10T04:46:05.009Z,42.10
2017-11-10T04:47:04.734Z,40.20
2017-11-10T04:48:04.713Z,60.50
2017-11-10T04:49:04.677Z,64.20
2017-11-10T04:50:04.657Z,55.40
2017-11-10T04:51:04.650Z,75.80
2017-11-10T04:52:04.598Z,76.80
2017-11-10T04:53:04.572Z,55.00
2017-11-10T04:54:04.538Z,43.80
2017-11-10T04:55:04.510Z,66.50
2017-11-10T04:56:04.491Z,67.40
2017-11-10T04:57:04.457Z,48.70
2017-11-10T04:58:04.432Z,64.50
2017-11-10T04:59:04.403Z,58.80
2017-11-10T05:00:04.372Z,41.20
2017-11-10T05:01:04.352Z,41.90
2017-11-10T05:02:04.323Z,35.80
2017-11-10T05:03:04.540Z,42.50
2017-11-10T05:04:04.273Z,46.90
2017-11-10T05:05:04.238Z,50.70
2017-11-10T05:06:04.216Z,50.10
2017-11-10T05:07:04.180Z,55.30
2017-11-10T05:08:04.153Z,37.90
2017-11-10T05:09:04.127Z,41.70
2017-11-10T05:10:04.098Z,36.20
2017-11-10T05:11:04.079Z,54.60
2017-11-10T05:12:04.043Z,45.40
2017-11-10T05:13:04.035Z,64.20
2017-11-10T05:14:03.987Z,51.90
2017-11-10T05:15:04.219Z,57.40
2017-11-10T05:16:03.931Z,56.00
2017-11-10T05:17:03.914Z,56.10
2017-11-10T05:18:03.884Z,41.10
2017-11-10T05:19:03.853Z,44.00
2017-11-10T05:20:03.825Z,43.80
2017-11-10T05:21:04.103Z,40.40
2017-11-10T05:22:03.768Z,48.30
2017-11-10T05:23:03.741Z,49.50
2017-11-10T05:24:03.715Z,47.10
2017-11-10T05:25:03.689Z,40.50
2017-11-10T05:26:03.662Z,37.30
2017-11-10T05:27:03.637Z,37.50
2017-11-10T05:28:03.608Z,48.20
2017-11-10T05:29:03.571Z,38.50
2017-11-10T05:30:03.556Z,46.70
2017-11-10T05:31:03.527Z,39.00
2017-11-10T05:32:03.497Z,46.60
2017-11-10T05:33:03.469Z,41.90
2017-11-10T05:34:03.441Z,44.30
2017-11-10T05:35:03.419Z,52.10
2017-11-10T05:36:03.390Z,40.90
2017-11-10T05:37:03.353Z,36.80
2017-11-10T05:38:03.332Z,39.40
2017-11-10T05:39:03.602Z,38.70
2017-11-10T05:40:03.271Z,42.10
2017-11-10T05:41:03.243Z,40.00
2017-11-10T05:42:03.223Z,40.10
2017-11-10T05:43:03.202Z,45.10
2017-11-10T05:44:03.164Z,30.40
2017-11-10T05:45:04.583Z,40.70
2017-11-10T05:46:03.104Z,45.30
2017-11-10T05:47:03.088Z,53.80
2017-11-10T05:48:03.054Z,47.50
2017-11-10T05:49:03.021Z,54.60
2017-11-10T05:50:02.998Z,44.20
2017-11-10T05:51:02.971Z,50.80
2017-11-10T05:52:02.941Z,42.30
2017-11-10T05:53:02.918Z,54.70
2017-11-10T05:54:02.891Z,64.60
2017-11-10T05:55:02.869Z,47.70
2017-11-10T05:56:02.830Z,38.30
2017-11-10T05:57:02.809Z,47.30
2017-11-10T05:58:02.784Z,49.90
2017-11-10T05:59:02.757Z,48.80
2017-11-10T06:00:02.726Z,55.50
2017-11-10T06:01:02.698Z,63.70
2017-11-10T06:02:02.969Z,42.80
2017-11-10T06:03:02.642Z,40.60
2017-11-10T06:04:02.622Z,46.80
2017-11-10T06:05:02.589Z,54.00
2017-11-10T06:06:02.555Z,56.20
2017-11-10T06:07:02.530Z,64.60
2017-11-10T06:08:02.499Z,43.00
2017-11-10T06:09:02.483Z,53.90
2017-11-10T06:10:02.450Z,55.50
2017-11-10T06:11:02.417Z,64.90
2017-11-10T06:12:02.391Z,57.30
2017-11-10T06:13:02.362Z,50.90
2017-11-10T06:14:02.591Z,62.70
2017-11-10T06:15:02.318Z,54.40
2017-11-10T06:16:02.289Z,50.20
2017-11-10T06:17:02.250Z,39.50
2017-11-10T06:18:02.232Z,45.00
2017-11-10T06:19:02.196Z,40.00
2017-11-10T06:20:02.425Z,42.90
2017-11-10T06:21:02.150Z,46.80
2017-11-10T06:22:02.117Z,49.90
2017-11-10T06:23:02.093Z,50.50
2017-11-10T06:24:02.059Z,45.00
2017-11-10T06:25:02.034Z,44.90
2017-11-10T06:26:02.003Z,34.80
2017-11-10T06:27:01.982Z,40.90
2017-11-10T06:28:01.951Z,47.00
2017-11-10T06:29:01.931Z,48.70
2017-11-10T06:30:01.895Z,44.20
2017-11-10T06:31:01.868Z,49.40
2017-11-10T06:32:01.840Z,46.20
2017-11-10T06:33:01.810Z,41.90
2017-11-10T06:34:01.786Z,37.90
2017-11-10T06:35:01.764Z,39.70
2017-11-10T06:36:01.737Z,48.80
2017-11-10T06:37:01.708Z,35.30
2017-11-10T06:38:01.679Z,49.70
2017-11-10T06:39:01.651Z,43.90
2017-11-10T06:40:01.624Z,57.40
2017-11-10T06:41:01.591Z,49.20
2017-11-10T06:42:01.565Z,56.30
2017-11-10T06:43:01.534Z,70.10
2017-11-10T06:44:01.511Z,64.10
2017-11-10T06:45:01.481Z,44.70
2017-11-10T06:46:01.457Z,51.20
2017-11-10T06:47:01.428Z,61.90
2017-11-10T06:48:01.402Z,45.80
2017-11-10T06:49:01.370Z,38.70
2017-11-10T06:50:01.359Z,50.60
2017-11-10T06:51:01.323Z,35.20
2017-11-10T06:52:01.296Z,46.40
2017-11-10T06:53:01.261Z,46.10
2017-11-10T06:54:01.236Z,48.50
2017-11-10T06:55:01.203Z,69.80
2017-11-10T06:56:01.181Z,42.70
2017-11-10T06:57:01.156Z,46.60
2017-11-10T06:58:01.125Z,40.30
2017-11-10T06:59:01.096Z,46.00
2017-11-10T07:00:01.068Z,37.40
2017-11-10T07:01:01.041Z,50.90
2017-11-10T07:02:01.011Z,38.90
2017-11-10T07:03:00.988Z,45.30
2017-11-10T07:04:00.956Z,45.80
2017-11-10T07:05:00.929Z,52.60
2017-11-10T07:06:00.904Z,45.70
2017-11-10T07:07:00.975Z,44.70
2017-11-10T07:08:00.854Z,54.40
2017-11-10T07:09:00.822Z,51.30
2017-11-10T07:10:00.802Z,42.20
2017-11-10T07:11:00.767Z,36.80
2017-11-10T07:12:00.735Z,42.40
2017-11-10T07:13:01.014Z,36.50
2017-11-10T07:14:00.685Z,34.00
2017-11-10T07:15:00.659Z,39.10
2017-11-10T07:16:00.632Z,50.30
2017-11-10T07:17:00.608Z,46.40
2017-11-10T07:18:00.574Z,47.40
2017-11-10T07:19:00.543Z,33.90
2017-11-10T07:20:00.521Z,38.00
2017-11-10T07:21:00.489Z,40.90
2017-11-10T07:22:00.465Z,29.40
2017-11-10T07:23:00.443Z,35.80
2017-11-10T07:24:00.408Z,36.90
2017-11-10T07:25:00.379Z,33.30
2017-11-10T07:26:00.349Z,35.30
2017-11-10T07:27:00.332Z,41.60
2017-11-10T07:28:00.304Z,42.40
2017-11-10T07:29:00.267Z,44.10
2017-11-10T07:30:00.245Z,40.30
2017-11-10T07:31:00.218Z,33.10
2017-11-10T07:32:00.196Z,40.30
2017-11-10T07:33:00.165Z,39.10
2017-11-10T07:34:00.132Z,36.90
2017-11-10T07:35:00.109Z,33.50
2017-11-10T07:36:00.381Z,40.60
2017-11-10T07:37:00.048Z,37.80
2017-11-10T07:38:00.025Z,35.10
2017-11-10T07:38:59.996Z,41.50
2017-11-10T07:39:59.964Z,40.60
2017-11-10T07:40:59.940Z,39.60
2017-11-10T07:41:59.913Z,34.70
2017-11-10T07:42:59.885Z,33.50
2017-11-10T07:43:59.859Z,32.50
2017-11-10T07:44:59.833Z,46.90
2017-11-10T07:45:59.807Z,41.40
2017-11-10T07:46:59.779Z,38.00
2017-11-10T07:47:59.748Z,43.00
2017-11-10T07:48:59.722Z,34.30
2017-11-10T07:49:59.713Z,36.90
2017-11-10T07:50:59.673Z,38.10
2017-11-10T07:51:59.640Z,31.70
2017-11-10T07:52:59.607Z,34.00
2017-11-10T07:53:59.583Z,30.20
2017-11-10T07:54:59.570Z,34.80
2017-11-10T07:55:59.530Z,30.40
2017-11-10T07:56:59.496Z,33.00
2017-11-10T07:57:59.470Z,31.90
2017-11-10T07:58:59.449Z,35.00
2017-11-10T07:59:59.421Z,39.80
2017-11-10T08:00:59.395Z,26.30
2017-11-10T08:01:59.372Z,27.80
2017-11-10T08:02:59.337Z,47.70
2017-11-10T08:03:59.315Z,33.00
2017-11-10T08:04:59.284Z,37.60
2017-11-10T08:05:59.276Z,35.10
2017-11-10T08:06:59.231Z,33.40
2017-11-10T08:07:59.209Z,28.20
2017-11-10T08:08:59.170Z,24.20
2017-11-10T08:09:59.147Z,29.80
2017-11-10T08:10:59.117Z,26.70
2017-11-10T08:11:59.091Z,37.00
2017-11-10T08:12:59.065Z,37.30
2017-11-10T08:13:59.043Z,35.80
2017-11-10T08:14:59.014Z,26.60
2017-11-10T08:15:58.983Z,31.20
2017-11-10T08:16:58.953Z,37.50
2017-11-10T08:17:58.932Z,28.20
2017-11-10T08:18:58.900Z,26.00
2017-11-10T08:19:58.880Z,35.10
2017-11-10T08:20:58.848Z,28.20
2017-11-10T08:21:58.819Z,29.80
2017-11-10T08:22:58.800Z,30.00
2017-11-10T08:23:58.765Z,33.30
2017-11-10T08:24:58.737Z,31.30
2017-11-10T08:25:58.711Z,32.20
2017-11-10T08:26:58.683Z,30.40
2017-11-10T08:27:58.656Z,38.50
2017-11-10T08:28:58.632Z,26.90
2017-11-10T08:29:58.608Z,36.80
2017-11-10T08:30:58.576Z,30.00
2017-11-10T08:31:58.550Z,28.90
2017-11-10T08:32:58.519Z,29.30
2017-11-10T08:33:58.501Z,31.90
2017-11-10T08:34:58.468Z,23.60
2017-11-10T08:35:58.446Z,27.30
2017-11-10T08:36:58.413Z,27.90
2017-11-10T08:37:58.387Z,27.20
2017-11-10T08:38:58.365Z,29.50
2017-11-10T08:39:58.334Z,29.50
2017-11-10T08:40:58.600Z,28.80
2017-11-10T08:41:58.277Z,29.40
2017-11-10T08:42:58.254Z,32.80
2017-11-10T08:43:58.220Z,28.50
2017-11-10T08:44:58.199Z,30.20
2017-11-10T08:45:58.173Z,29.00
2017-11-10T08:46:58.144Z,30.20
2017-11-10T08:47:58.110Z,34.10
2017-11-10T08:48:58.095Z,30.30
2017-11-10T08:49:58.062Z,34.80
2017-11-10T08:50:58.037Z,30.00
2017-11-10T08:51:58.005Z,31.10
2017-11-10T08:52:57.980Z,33.20
2017-11-10T08:53:57.950Z,31.50
2017-11-10T08:54:57.923Z,29.10
2017-11-10T08:55:57.903Z,26.50
2017-11-10T08:56:57.870Z,35.80
2017-11-10T08:57:57.840Z,28.50
2017-11-10T08:58:57.814Z,32.70
2017-11-10T08:59:57.782Z,27.80
2017-11-10T09:00:57.756Z,32.90
2017-11-10T09:01:57.730Z,30.50
2017-11-10T09:02:57.701Z,30.20
2017-11-10T09:03:57.681Z,36.10
2017-11-10T09:04:57.652Z,33.70
2017-11-10T09:05:57.623Z,34.20
2017-11-10T09:06:57.608Z,39.20
2017-11-10T09:07:57.574Z,34.10
2017-11-10T09:08:57.539Z,27.00
2017-11-10T09:09:57.507Z,36.60
2017-11-10T09:10:57.494Z,32.00
2017-11-10T09:11:57.454Z,32.80
2017-11-10T09:12:57.429Z,36.60
2017-11-10T09:13:57.400Z,30.80
2017-11-10T09:14:57.385Z,31.00
2017-11-10T09:15:57.344Z,43.20
2017-11-10T09:16:57.360Z,50.10
2017-11-10T09:17:57.290Z,31.70
2017-11-10T09:18:57.273Z,40.60
2017-11-10T09:19:57.237Z,43.20
2017-11-10T09:20:57.214Z,45.40
2017-11-10T09:21:57.182Z,55.40
2017-11-10T09:22:57.156Z,44.50
2017-11-10T09:23:57.124Z,40.70
2017-11-10T09:24:57.101Z,38.20
2017-11-10T09:25:57.072Z,34.20
2017-11-10T09:26:57.048Z,41.70
2017-11-10T09:27:57.022Z,34.90
2017-11-10T09:28:57.003Z,38.20
2017-11-10T09:29:56.964Z,50.70
2017-11-10T09:30:56.948Z,39.60
2017-11-10T09:31:56.915Z,35.40
2017-11-10T09:32:56.883Z,34.30
2017-11-10T09:33:56.856Z,39.10
2017-11-10T09:34:56.868Z,28.40
2017-11-10T09:35:56.805Z,30.60
2017-11-10T09:36:56.775Z,36.10
2017-11-10T09:37:56.747Z,39.00
2017-11-10T09:38:56.720Z,37.30
2017-11-10T09:39:56.692Z,33.00
2017-11-10T09:40:56.673Z,31.30
2017-11-10T09:41:56.645Z,34.60
2017-11-10T09:42:56.613Z,37.10
2017-11-10T09:43:56.599Z,41.70
2017-11-10T09:44:56.558Z,37.00
2017-11-10T09:45:56.535Z,38.70
2017-11-10T09:46:56.510Z,38.60
2017-11-10T09:47:56.481Z,36.30
2017-11-10T09:48:56.454Z,32.80
2017-11-10T09:49:56.426Z,41.60
2017-11-10T09:50:56.651Z,29.90
2017-11-10T09:51:56.380Z,29.40
2017-11-10T09:52:56.349Z,29.90
2017-11-10T09:53:56.326Z,32.40
2017-11-10T09:54:56.290Z,44.00
2017-11-10T09:55:56.269Z,37.80
2017-11-10T09:56:56.242Z,33.30
2017-11-10T09:57:56.217Z,38.60
2017-11-10T09:58:56.194Z,40.40
2017-11-10T09:59:56.159Z,33.90
2017-11-10T10:00:56.133Z,42.20
2017-11-10T10:01:56.110Z,44.70
2017-11-10T10:02:56.078Z,39.70
2017-11-10T10:03:56.064Z,42.40
2017-11-10T10:04:56.032Z,34.90
2017-11-10T10:05:56.007Z,37.60
2017-11-10T10:06:55.980Z,39.70
2017-11-10T10:07:55.954Z,33.50
2017-11-10T10:08:55.919Z,39.80
2017-11-10T10:09:55.925Z,35.30
2017-11-10T10:10:55.871Z,31.40
2017-11-10T10:11:55.848Z,33.30
2017-11-10T10:12:55.824Z,30.60
2017-11-10T10:13:55.798Z,41.90
2017-11-10T10:14:56.065Z,35.60
2017-11-10T10:15:55.738Z,26.60
2017-11-10T10:16:55.713Z,31.50
2017-11-10T10:17:55.686Z,27.70
2017-11-10T10:18:55.664Z,31.80
2017-11-10T10:19:55.645Z,32.30
2017-11-10T10:20:55.607Z,29.40
2017-11-10T10:21:55.586Z,33.30
2017-11-10T10:22:55.571Z,32.70
2017-11-10T10:23:55.536Z,37.20
2017-11-10T10:24:55.507Z,35.40
2017-11-10T10:25:55.490Z,40.10
2017-11-10T10:26:55.460Z,40.90
2017-11-10T10:27:55.429Z,41.20
2017-11-10T10:28:55.409Z,27.80
2017-11-10T10:29:55.378Z,35.40
2017-11-10T10:30:55.349Z,30.40
2017-11-10T10:31:55.328Z,33.60
2017-11-10T10:32:55.296Z,27.10
2017-11-10T10:33:55.278Z,32.10
2017-11-10T10:34:55.254Z,34.70
2017-11-10T10:35:55.219Z,27.30
2017-11-10T10:36:55.207Z,31.50
2017-11-10T10:37:55.168Z,33.70
2017-11-10T10:38:55.147Z,32.50
2017-11-10T10:39:55.123Z,33.40
2017-11-10T10:40:55.097Z,32.50
2017-11-10T10:41:55.077Z,38.20
2017-11-10T10:42:55.039Z,32.90
2017-11-10T10:43:55.017Z,46.90
2017-11-10T10:44:54.983Z,40.40
2017-11-10T10:45:54.959Z,34.10
2017-11-10T10:46:54.935Z,43.60
2017-11-10T10:47:54.911Z,30.70
2017-11-10T10:48:54.910Z,34.80
2017-11-10T10:49:55.159Z,39.80
2017-11-10T10:50:54.830Z,31.60
2017-11-10T10:51:54.816Z,30.90
2017-11-10T10:52:54.780Z,31.40
2017-11-10T10:53:54.757Z,31.60
2017-11-10T10:54:54.722Z,30.80
2017-11-10T10:55:54.896Z,31.00
2017-11-10T10:56:54.674Z,37.20
2017-11-10T10:57:54.649Z,32.10
2017-11-10T10:58:54.619Z,31.80
2017-11-10T10:59:54.596Z,28.60
2017-11-10T11:00:54.563Z,28.40
2017-11-10T11:01:54.550Z,30.20
2017-11-10T11:02:54.514Z,29.30
2017-11-10T11:03:54.491Z,40.50
2017-11-10T11:04:54.467Z,36.10
2017-11-10T11:05:54.438Z,31.90
2017-11-10T11:06:54.410Z,39.70
2017-11-10T11:07:54.388Z,33.70
2017-11-10T11:08:54.364Z,31.00
2017-11-10T11:09:54.346Z,29.00
2017-11-10T11:10:54.304Z,27.40
2017-11-10T11:11:54.277Z,31.30
2017-11-10T11:12:54.247Z,32.10
2017-11-10T11:13:54.227Z,31.50
2017-11-10T11:14:54.198Z,33.00
2017-11-10T11:15:54.172Z,29.30
2017-11-10T11:16:54.150Z,41.40
2017-11-10T11:17:54.135Z,34.80
2017-11-10T11:18:54.097Z,35.90
2017-11-10T11:19:54.084Z,37.30
2017-11-10T11:20:54.043Z,27.70
2017-11-10T11:21:54.015Z,26.00
2017-11-10T11:22:53.989Z,30.70
2017-11-10T11:23:53.961Z,26.30
2017-11-10T11:24:53.944Z,25.10
2017-11-10T11:25:53.913Z,34.50
2017-11-10T11:26:53.883Z,24.80
2017-11-10T11:27:53.858Z,32.00
2017-11-10T11:28:53.834Z,27.60
2017-11-10T11:29:53.801Z,28.20
2017-11-10T11:30:53.781Z,33.60
2017-11-10T11:31:53.755Z,26.40
2017-11-10T11:32:53.722Z,30.50
2017-11-10T11:33:53.753Z,27.30
2017-11-10T11:34:53.674Z,28.50
2017-11-10T11:35:53.651Z,58.20
2017-11-10T11:36:53.623Z,33.50
2017-11-10T11:37:53.591Z,39.70
2017-11-10T11:38:53.567Z,30.30
2017-11-10T11:39:53.542Z,36.60
2017-11-10T11:40:53.512Z,30.60
2017-11-10T11:41:53.484Z,28.70
2017-11-10T11:42:53.457Z,30.70
2017-11-10T11:43:53.441Z,30.00
2017-11-10T11:44:53.415Z,22.30
2017-11-10T11:45:53.378Z,27.20
2017-11-10T11:46:53.353Z,21.90
2017-11-10T11:47:53.331Z,26.30
2017-11-10T11:48:53.299Z,20.20
2017-11-10T11:49:53.273Z,25.40
2017-11-10T11:50:53.271Z,20.30
2017-11-10T11:51:53.224Z,20.00
2017-11-10T11:52:53.190Z,27.50
2017-11-10T11:53:53.195Z,24.00
2017-11-10T11:54:53.140Z,24.50
2017-11-10T11:55:53.115Z,20.70
2017-11-10T11:56:53.093Z,27.60
2017-11-10T11:57:53.058Z,18.90
2017-11-10T11:58:53.033Z,19.60
2017-11-10T11:59:53.006Z,23.70
2017-11-10T12:00:52.987Z,23.40
2017-11-10T12:01:52.956Z,24.70
2017-11-10T12:02:52.928Z,17.80
2017-11-10T12:03:52.906Z,18.10
2017-11-10T12:04:52.875Z,22.80
2017-11-10T12:05:52.846Z,18.70
2017-11-10T12:06:52.828Z,20.70
2017-11-10T12:07:52.802Z,22.00
2017-11-10T12:08:52.768Z,21.30
2017-11-10T12:09:52.743Z,26.50
2017-11-10T12:10:52.724Z,19.10
2017-11-10T12:11:52.687Z,22.40
2017-11-10T12:12:52.665Z,20.40
2017-11-10T12:13:52.641Z,13.70
2017-11-10T12:14:52.611Z,19.40
2017-11-10T12:15:52.584Z,17.70
2017-11-10T12:16:52.555Z,14.80
2017-11-10T12:17:52.530Z,12.80
2017-11-10T12:18:52.505Z,24.10
2017-11-10T12:19:52.480Z,18.80
2017-11-10T12:20:52.451Z,20.60
2017-11-10T12:21:52.425Z,20.90
2017-11-10T12:22:52.397Z,23.00
2017-11-10T12:23:52.371Z,16.20
2017-11-10T12:24:52.340Z,21.40
2017-11-10T12:25:52.321Z,15.60
2017-11-10T12:26:52.298Z,21.30
2017-11-10T12:27:52.263Z,20.20
2017-11-10T12:28:52.249Z,25.20
2017-11-10T12:29:52.216Z,30.20
2017-11-10T12:30:52.182Z,18.80
2017-11-10T12:31:52.159Z,17.40
2017-11-10T12:32:52.126Z,16.40
2017-11-10T12:33:52.106Z,26.70
2017-11-10T12:34:52.072Z,27.90
2017-11-10T12:35:52.055Z,22.90
2017-11-10T12:36:52.014Z,29.30
2017-11-10T12:37:51.990Z,16.60
2017-11-10T12:38:51.964Z,18.60
2017-11-10T12:39:51.941Z,14.50
2017-11-10T12:40:51.914Z,20.80
2017-11-10T12:41:51.883Z,28.50
2017-11-10T12:42:51.864Z,18.60
2017-11-10T12:43:51.825Z,25.60
2017-11-10T12:44:51.812Z,22.90
2017-11-10T12:45:51.785Z,21.30
2017-11-10T12:46:51.753Z,23.60
2017-11-10T12:47:51.716Z,15.10
2017-11-10T12:48:51.691Z,19.20
2017-11-10T12:49:51.670Z,20.60